Starrucca, Pennsylvania
Current Conditions -  °F | °C
As of 10:36 PM on Saturday 22 Nov 2014 (Local Time) from KBGM Reporting Station
Overcast Overcast  
Wind Chill: 28°   Ceiling: 3600
Heat Index: 37°   Visibility: 10mi
Dew Point: 31°   Wind: 14mph
Humidity: 79%   Direction: 210°SSW
Pressure: 30.04"   Gusts: 22mph
Location:  41.9°N, 75.47°W
Report Text: KBGM 230336Z 21012G19KT 10SM SCT023 BKN036 OVC047 03/M01 A3004 RMK AO2 RAE24 P0002 T00281006
Loading
Personal Weather Stations






























Interactive Weather Map New forecast layout! Learn more

10-Day Weather Forecast

Advertisements
Track Severe Weather on mobile